createdAt,value
2019-03-04T00:01:58.575Z,10.40
2019-03-04T00:04:26.253Z,10.40
2019-03-04T00:06:53.826Z,10.40
2019-03-04T00:09:21.444Z,10.40
2019-03-04T00:11:48.943Z,10.40
2019-03-04T00:14:16.501Z,10.20
2019-03-04T00:16:44.019Z,10.30
2019-03-04T00:19:11.533Z,10.20
2019-03-04T00:21:39.104Z,10.20
2019-03-04T00:24:06.999Z,10.30
2019-03-04T00:26:34.572Z,10.30
2019-03-04T00:29:02.123Z,10.50
2019-03-04T00:31:29.806Z,10.40
2019-03-04T00:33:57.328Z,10.40
2019-03-04T00:36:24.924Z,10.40
2019-03-04T00:38:52.619Z,10.20
2019-03-04T00:41:20.163Z,10.00
2019-03-04T00:43:48.091Z,9.90
2019-03-04T00:46:15.635Z,9.90
2019-03-04T00:48:43.166Z,9.90
2019-03-04T00:51:10.715Z,9.80
2019-03-04T00:53:38.184Z,9.70
2019-03-04T00:56:05.724Z,9.60
2019-03-04T00:58:33.256Z,9.50
2019-03-04T01:01:00.823Z,9.30
2019-03-04T01:03:28.359Z,9.30
2019-03-04T01:05:55.922Z,9.30
2019-03-04T01:08:23.460Z,9.20
2019-03-04T01:10:51.037Z,9.10
2019-03-04T01:13:18.640Z,8.90
2019-03-04T01:15:46.175Z,8.90
2019-03-04T01:18:14.461Z,8.80
2019-03-04T01:20:41.951Z,8.90
2019-03-04T01:23:09.444Z,8.90
2019-03-04T01:25:36.965Z,8.80
2019-03-04T01:28:04.811Z,8.70
2019-03-04T01:30:32.324Z,8.70
2019-03-04T01:32:59.858Z,8.90
2019-03-04T01:35:27.411Z,9.00
2019-03-04T01:37:54.871Z,9.20
2019-03-04T01:40:22.765Z,9.30
2019-03-04T01:42:50.456Z,9.40
2019-03-04T01:45:18.090Z,9.50
2019-03-04T01:47:45.675Z,9.60
2019-03-04T01:50:17.073Z,9.60
2019-03-04T01:52:44.848Z,9.60
2019-03-04T01:55:12.629Z,9.70
2019-03-04T01:57:40.138Z,9.70
2019-03-04T02:00:13.655Z,9.60
2019-03-04T02:02:41.136Z,9.60
2019-03-04T02:05:08.804Z,9.50
2019-03-04T02:07:36.458Z,9.50
2019-03-04T02:10:04.468Z,9.40
2019-03-04T02:12:32.030Z,9.30
2019-03-04T02:14:59.558Z,9.20
2019-03-04T02:17:27.043Z,9.10
2019-03-04T02:19:54.605Z,8.90
2019-03-04T02:22:22.176Z,8.90
2019-03-04T02:24:49.694Z,8.80
2019-03-04T02:27:17.212Z,8.70
2019-03-04T02:29:44.775Z,8.60
2019-03-04T02:32:12.329Z,8.60
2019-03-04T02:34:40.865Z,8.50
2019-03-04T02:37:08.380Z,8.40
2019-03-04T02:39:35.932Z,8.50
2019-03-04T02:42:03.504Z,8.50
2019-03-04T02:44:31.034Z,8.40
2019-03-04T02:46:58.601Z,8.40
2019-03-04T02:49:26.267Z,8.30
2019-03-04T02:51:53.969Z,8.30
2019-03-04T02:54:21.537Z,8.20
2019-03-04T02:56:49.430Z,8.20
2019-03-04T02:59:16.988Z,8.20
2019-03-04T03:01:44.535Z,8.30
2019-03-04T03:04:12.058Z,8.30
2019-03-04T03:06:39.628Z,8.30
2019-03-04T03:09:07.985Z,8.30
2019-03-04T03:11:35.519Z,8.10
2019-03-04T03:14:03.205Z,8.20
2019-03-04T03:16:30.771Z,8.30
2019-03-04T03:18:58.296Z,8.40
2019-03-04T03:21:25.819Z,8.40
2019-03-04T03:23:53.450Z,8.40
2019-03-04T03:26:20.996Z,8.40
2019-03-04T03:28:48.552Z,8.50
2019-03-04T03:31:16.140Z,8.50
2019-03-04T03:33:43.788Z,8.60
2019-03-04T03:36:11.722Z,8.60
2019-03-04T03:38:39.254Z,8.70
2019-03-04T03:41:06.876Z,9.00
2019-03-04T03:43:34.497Z,9.20
2019-03-04T03:46:01.979Z,9.50
2019-03-04T03:48:29.754Z,9.20
2019-03-04T03:50:57.276Z,9.10
2019-03-04T03:53:25.153Z,9.00
2019-03-04T03:55:52.989Z,8.80
2019-03-04T03:58:20.494Z,8.70
2019-03-04T04:00:48.111Z,8.70
2019-03-04T04:03:15.608Z,8.60
2019-03-04T04:05:43.264Z,8.60
2019-03-04T04:08:10.734Z,8.60
2019-03-04T04:10:38.317Z,8.60
2019-03-04T04:13:05.851Z,8.80
2019-03-04T04:15:33.380Z,8.80
2019-03-04T04:18:00.889Z,8.80
2019-03-04T04:20:28.781Z,8.90
2019-03-04T04:22:56.300Z,8.90
2019-03-04T04:25:24.240Z,8.90
2019-03-04T04:27:52.039Z,8.90
2019-03-04T04:30:21.291Z,8.90
2019-03-04T04:32:49.034Z,9.00
2019-03-04T04:35:16.514Z,8.90
2019-03-04T04:37:44.045Z,8.90
2019-03-04T04:40:11.740Z,8.90
2019-03-04T04:42:39.281Z,8.80
2019-03-04T04:45:07.074Z,8.70
2019-03-04T04:47:34.615Z,8.70
2019-03-04T04:50:02.176Z,8.80
2019-03-04T04:52:29.697Z,8.70
2019-03-04T04:54:57.195Z,8.70
2019-03-04T04:57:24.767Z,8.80
2019-03-04T04:59:52.317Z,8.90
2019-03-04T05:02:24.723Z,9.00
2019-03-04T05:04:52.286Z,9.00
2019-03-04T05:07:19.878Z,9.00
2019-03-04T05:09:47.675Z,9.00
2019-03-04T05:12:15.200Z,9.00
2019-03-04T05:14:42.729Z,9.00
2019-03-04T05:17:10.698Z,9.00
2019-03-04T05:19:38.227Z,9.00
2019-03-04T05:22:05.763Z,9.10
2019-03-04T05:24:33.299Z,9.00
2019-03-04T05:27:00.807Z,9.00
2019-03-04T05:29:28.394Z,9.00
2019-03-04T05:31:55.979Z,9.00
2019-03-04T05:34:23.545Z,9.00
2019-03-04T05:36:51.076Z,9.10
2019-03-04T05:39:18.641Z,9.10
2019-03-04T05:41:46.170Z,9.10
2019-03-04T05:44:13.749Z,9.10
2019-03-04T05:46:41.289Z,9.10
2019-03-04T05:49:08.868Z,9.10
2019-03-04T05:51:36.425Z,9.00
2019-03-04T05:54:04.368Z,9.00
2019-03-04T05:56:31.919Z,9.00
2019-03-04T05:58:59.495Z,9.00
2019-03-04T06:01:30.085Z,8.90
2019-03-04T06:04:00.190Z,8.90
2019-03-04T06:06:53.191Z,9.00
2019-03-04T06:09:21.116Z,9.00
2019-03-04T06:11:48.661Z,8.90
2019-03-04T06:14:16.251Z,8.80
2019-03-04T06:16:47.219Z,8.80
2019-03-04T06:19:12.983Z,8.70
2019-03-04T06:21:40.475Z,8.70
2019-03-04T06:24:08.204Z,8.70
2019-03-04T06:26:35.652Z,8.70
2019-03-04T06:29:03.394Z,8.70
2019-03-04T06:31:30.878Z,8.70
2019-03-04T06:33:58.335Z,8.70
2019-03-04T06:36:25.875Z,8.60
2019-03-04T06:38:53.383Z,8.60
2019-03-04T06:41:20.867Z,8.60
2019-03-04T06:43:48.352Z,8.60
2019-03-04T06:46:15.818Z,8.60
2019-03-04T06:48:43.323Z,8.60
2019-03-04T06:51:15.433Z,8.60
2019-03-04T06:54:03.967Z,8.70
2019-03-04T06:56:44.395Z,8.70
2019-03-04T06:59:17.768Z,8.80
2019-03-04T07:01:49.278Z,8.70
2019-03-04T07:04:21.535Z,8.80
2019-03-04T07:06:49.013Z,8.80
2019-03-04T07:09:18.611Z,8.80
2019-03-04T07:11:47.540Z,8.80
2019-03-04T07:14:15.015Z,8.90
2019-03-04T07:16:43.178Z,9.00
2019-03-04T07:19:12.533Z,9.10
2019-03-04T07:21:40.371Z,9.20
2019-03-04T07:24:07.856Z,9.40
2019-03-04T07:26:35.314Z,9.50
2019-03-04T07:29:03.174Z,9.60
2019-03-04T07:31:30.628Z,9.70
2019-03-04T07:33:58.103Z,9.90
2019-03-04T07:36:25.590Z,10.00
2019-03-04T07:38:57.562Z,10.00
2019-03-04T07:41:26.864Z,10.10
2019-03-04T07:43:54.801Z,10.10
2019-03-04T07:46:22.288Z,10.20
2019-03-04T07:48:49.815Z,10.20
2019-03-04T07:51:17.489Z,10.20
2019-03-04T07:53:46.620Z,10.20
2019-03-04T07:56:14.291Z,10.30
2019-03-04T07:58:53.951Z,10.40
2019-03-04T08:01:21.431Z,10.80
2019-03-04T08:03:48.925Z,10.90
2019-03-04T08:06:16.401Z,11.00
2019-03-04T08:09:31.928Z,11.30
2019-03-04T08:12:46.042Z,11.50
2019-03-04T08:15:13.623Z,11.70
2019-03-04T08:17:41.102Z,11.80
2019-03-04T08:20:10.115Z,11.90
2019-03-04T08:22:37.585Z,12.10
2019-03-04T08:25:06.699Z,12.20
2019-03-04T08:27:34.136Z,12.40
2019-03-04T08:30:02.252Z,12.50
2019-03-04T08:32:30.203Z,12.60
2019-03-04T08:34:57.652Z,12.70
2019-03-04T08:37:25.119Z,12.70
2019-03-04T08:39:52.603Z,12.80
2019-03-04T08:42:20.073Z,12.80
2019-03-04T08:44:47.575Z,12.80
2019-03-04T08:47:15.040Z,12.90
2019-03-04T08:49:42.553Z,13.00
2019-03-04T08:52:10.030Z,13.10
2019-03-04T08:54:37.484Z,13.20
2019-03-04T08:57:04.983Z,13.30
2019-03-04T08:59:32.437Z,13.50
2019-03-04T09:01:59.996Z,13.70
2019-03-04T09:04:27.455Z,13.80
2019-03-04T09:06:54.985Z,14.00
2019-03-04T09:09:22.463Z,14.10
2019-03-04T09:11:50.194Z,14.20
2019-03-04T09:14:17.755Z,14.20
2019-03-04T09:16:45.240Z,14.10
2019-03-04T09:19:12.805Z,14.10
2019-03-04T09:21:40.264Z,14.20
2019-03-04T09:24:07.709Z,13.90
2019-03-04T09:26:35.220Z,13.80
2019-03-04T09:29:02.663Z,13.60
2019-03-04T09:31:30.187Z,13.60
2019-03-04T09:33:58.230Z,13.60
2019-03-04T09:36:25.676Z,13.80
2019-03-04T09:38:53.168Z,13.80
2019-03-04T09:41:20.675Z,13.80
2019-03-04T09:43:48.128Z,13.60
2019-03-04T09:46:15.682Z,13.70
2019-03-04T09:48:43.142Z,13.60
2019-03-04T09:51:10.868Z,13.60
2019-03-04T09:53:39.775Z,13.70
2019-03-04T09:56:07.404Z,13.60
2019-03-04T09:58:34.988Z,13.50
2019-03-04T10:01:18.671Z,13.50
2019-03-04T10:04:15.838Z,13.60
2019-03-04T10:07:12.797Z,13.40
2019-03-04T10:09:56.851Z,13.30
2019-03-04T10:12:51.380Z,13.20
2019-03-04T10:15:51.558Z,13.20
2019-03-04T10:19:09.094Z,13.10
2019-03-04T10:21:52.379Z,13.10
2019-03-04T10:24:46.998Z,13.00
2019-03-04T10:27:44.621Z,12.90
2019-03-04T10:30:46.750Z,12.80
2019-03-04T10:33:38.852Z,12.80
2019-03-04T10:36:18.112Z,12.70
2019-03-04T10:39:28.743Z,12.80
2019-03-04T10:42:33.931Z,12.80
2019-03-04T10:45:44.764Z,12.80
2019-03-04T10:48:12.624Z,12.90
2019-03-04T10:50:40.059Z,12.80
2019-03-04T10:53:07.542Z,13.10
2019-03-04T10:55:42.090Z,13.00
2019-03-04T10:58:04.275Z,12.80
2019-03-04T11:00:31.767Z,12.80
2019-03-04T11:02:59.211Z,12.80
2019-03-04T11:05:26.735Z,12.90
2019-03-04T11:07:54.573Z,12.70
2019-03-04T11:10:22.056Z,12.70
2019-03-04T11:12:49.555Z,12.70
2019-03-04T11:15:21.192Z,12.70
2019-03-04T11:17:49.255Z,12.70
2019-03-04T11:20:16.709Z,12.70
2019-03-04T11:22:44.153Z,12.70
2019-03-04T11:25:12.026Z,12.60
2019-03-04T11:27:39.608Z,12.60
2019-03-04T11:30:07.755Z,12.60
2019-03-04T11:32:35.280Z,12.50
2019-03-04T11:35:03.530Z,12.50
2019-03-04T11:37:30.980Z,12.60
2019-03-04T11:40:05.408Z,12.50
2019-03-04T11:42:32.854Z,12.40
2019-03-04T11:45:00.412Z,12.50
2019-03-04T11:47:27.910Z,12.40
2019-03-04T11:49:55.354Z,12.50
2019-03-04T11:52:22.836Z,12.50
2019-03-04T11:54:50.565Z,12.50
2019-03-04T11:57:18.315Z,12.70
2019-03-04T11:59:51.856Z,12.90
2019-03-04T12:02:20.846Z,12.90
2019-03-04T12:04:48.331Z,13.10
2019-03-04T12:07:15.944Z,12.70
2019-03-04T12:09:43.431Z,12.50
2019-03-04T12:12:10.931Z,12.50
2019-03-04T12:14:38.442Z,12.60
2019-03-04T12:17:06.231Z,12.50
2019-03-04T12:19:33.747Z,12.60
2019-03-04T12:22:01.255Z,12.50
2019-03-04T12:24:28.788Z,12.60
2019-03-04T12:26:56.652Z,12.70
2019-03-04T12:29:24.168Z,12.50
2019-03-04T12:32:01.503Z,12.50
2019-03-04T12:34:29.004Z,12.50
2019-03-04T12:36:56.501Z,12.30
2019-03-04T12:39:24.024Z,12.30
2019-03-04T12:41:51.505Z,12.20
2019-03-04T12:44:19.011Z,12.20
2019-03-04T12:46:46.881Z,12.20
2019-03-04T12:49:14.371Z,11.90
2019-03-04T12:51:41.877Z,11.80
2019-03-04T12:54:09.356Z,11.80
2019-03-04T12:56:37.221Z,11.70
2019-03-04T12:59:04.735Z,11.80
2019-03-04T13:01:32.255Z,11.80
2019-03-04T13:03:59.761Z,11.90
2019-03-04T13:06:27.231Z,11.80
2019-03-04T13:08:54.804Z,11.90
2019-03-04T13:11:22.295Z,12.10
2019-03-04T13:13:49.828Z,12.20
2019-03-04T13:16:17.407Z,12.30
2019-03-04T13:18:44.915Z,12.60
2019-03-04T13:21:12.774Z,13.20
2019-03-04T13:23:40.290Z,13.60
2019-03-04T13:26:08.187Z,14.10
2019-03-04T13:28:35.820Z,14.40
2019-03-04T13:31:03.396Z,14.80
2019-03-04T13:33:31.517Z,14.20
2019-03-04T13:35:59.319Z,14.00
2019-03-04T13:38:26.888Z,13.50
2019-03-04T13:40:54.771Z,13.30
2019-03-04T13:43:22.252Z,13.20
2019-03-04T13:45:49.757Z,13.10
2019-03-04T13:48:17.364Z,13.10
2019-03-04T13:50:44.822Z,13.00
2019-03-04T13:56:07.617Z,12.90
2019-03-04T13:58:35.236Z,12.80
2019-03-04T14:01:04.471Z,12.70
2019-03-04T14:03:31.972Z,12.60
2019-03-04T14:05:59.446Z,12.10
2019-03-04T14:08:26.895Z,11.80
2019-03-04T14:10:54.393Z,11.50
2019-03-04T14:13:22.250Z,11.30
2019-03-04T14:15:50.054Z,10.60
2019-03-04T14:18:17.527Z,10.20
2019-03-04T14:20:44.995Z,9.90
2019-03-04T14:23:12.507Z,9.90
2019-03-04T14:25:40.121Z,9.90
2019-03-04T14:28:07.626Z,10.00
2019-03-04T14:30:35.111Z,10.00
2019-03-04T14:33:02.713Z,10.00
2019-03-04T14:35:30.557Z,10.10
2019-03-04T14:37:58.427Z,10.60
2019-03-04T14:40:25.922Z,11.20
2019-03-04T14:42:55.170Z,11.40
2019-03-04T14:45:22.870Z,11.00
2019-03-04T14:47:50.351Z,10.60
2019-03-04T14:50:17.866Z,10.60
2019-03-04T14:52:45.760Z,10.40
2019-03-04T14:55:15.116Z,10.20
2019-03-04T14:57:42.689Z,10.10
2019-03-04T15:00:15.800Z,9.90
2019-03-04T15:02:43.252Z,9.60
2019-03-04T15:05:12.561Z,9.20
2019-03-04T15:07:40.052Z,9.00
2019-03-04T15:10:07.522Z,8.90
2019-03-04T15:12:35.014Z,8.90
2019-03-04T15:15:03.068Z,8.80
2019-03-04T15:17:30.730Z,8.70
2019-03-04T15:19:58.261Z,8.70
2019-03-04T15:22:34.685Z,8.80
2019-03-04T15:24:55.390Z,8.80
2019-03-04T15:27:22.855Z,8.80
2019-03-04T15:32:45.923Z,8.50
2019-03-04T15:35:13.386Z,8.60
2019-03-04T15:37:41.232Z,8.50
2019-03-04T15:40:08.747Z,8.50
2019-03-04T15:42:36.203Z,8.50
2019-03-04T15:45:04.143Z,8.50
2019-03-04T15:47:31.610Z,8.50
2019-03-04T15:49:59.111Z,8.50
2019-03-04T15:52:26.614Z,8.40
2019-03-04T15:54:54.101Z,8.40
2019-03-04T15:57:21.793Z,8.40
2019-03-04T15:59:49.311Z,8.20
2019-03-04T16:02:17.160Z,8.20
2019-03-04T16:04:44.946Z,8.10
2019-03-04T16:07:13.432Z,7.90
2019-03-04T16:09:41.011Z,8.00
2019-03-04T16:12:09.043Z,7.90
2019-03-04T16:14:36.485Z,7.90
2019-03-04T16:17:04.618Z,7.90
2019-03-04T16:19:32.081Z,7.90
2019-03-04T16:21:59.859Z,7.80
2019-03-04T16:24:27.340Z,7.90
2019-03-04T16:26:54.797Z,7.80
2019-03-04T16:29:22.299Z,7.90
2019-03-04T16:31:49.766Z,7.90
2019-03-04T16:34:17.347Z,7.80
2019-03-04T16:36:44.829Z,7.90
2019-03-04T16:39:12.295Z,7.90
2019-03-04T16:41:39.868Z,7.90
2019-03-04T16:44:07.335Z,7.80
2019-03-04T16:46:34.841Z,7.70
2019-03-04T16:49:02.289Z,7.70
2019-03-04T16:51:29.830Z,7.70
2019-03-04T16:53:57.369Z,7.60
2019-03-04T16:56:25.246Z,7.50
2019-03-04T16:58:53.161Z,7.50
2019-03-04T17:01:20.635Z,7.40
2019-03-04T17:03:48.128Z,7.20
2019-03-04T17:06:15.646Z,6.90
2019-03-04T17:08:43.120Z,6.60
2019-03-04T17:11:10.655Z,6.40
2019-03-04T17:13:38.114Z,6.40
2019-03-04T17:16:05.569Z,6.30
2019-03-04T17:18:33.122Z,6.30
2019-03-04T17:21:00.676Z,6.30
2019-03-04T17:23:28.179Z,6.40
2019-03-04T17:25:55.709Z,6.30
2019-03-04T17:28:23.215Z,6.20
2019-03-04T17:30:50.721Z,6.20
2019-03-04T17:33:18.299Z,6.30
2019-03-04T17:35:45.986Z,6.30
2019-03-04T17:38:13.980Z,6.40
2019-03-04T17:40:41.617Z,6.30
2019-03-04T17:43:09.157Z,6.50
2019-03-04T17:45:36.842Z,6.50
2019-03-04T17:48:04.499Z,6.50
2019-03-04T17:50:33.627Z,6.40
2019-03-04T17:53:01.519Z,6.40
2019-03-04T17:55:29.104Z,6.50
2019-03-04T17:57:57.111Z,6.30
2019-03-04T18:00:24.697Z,6.30
2019-03-04T18:02:52.212Z,6.20
2019-03-04T18:05:20.689Z,6.10
2019-03-04T18:07:49.516Z,6.10
2019-03-04T18:10:17.488Z,6.10
2019-03-04T18:12:44.990Z,6.00
2019-03-04T18:15:14.983Z,6.10
2019-03-04T18:17:42.620Z,5.90
2019-03-04T18:20:10.903Z,5.80
2019-03-04T18:22:38.511Z,5.80
2019-03-04T18:25:10.618Z,5.80
2019-03-04T18:27:47.868Z,5.80
2019-03-04T18:30:44.961Z,5.70
2019-03-04T18:34:01.113Z,5.80
2019-03-04T18:36:50.591Z,5.70
2019-03-04T18:39:48.700Z,5.70
2019-03-04T18:42:58.571Z,5.70
2019-03-04T18:46:00.274Z,5.70
2019-03-04T18:48:53.951Z,5.70
2019-03-04T18:51:21.885Z,5.80
2019-03-04T18:53:51.009Z,5.70
2019-03-04T18:56:21.981Z,5.70
2019-03-04T18:58:48.509Z,5.70
2019-03-04T19:01:16.037Z,5.70
2019-03-04T19:03:43.739Z,5.80
2019-03-04T19:06:11.462Z,5.70
2019-03-04T19:08:38.988Z,5.80
2019-03-04T19:11:06.571Z,5.80
2019-03-04T19:13:34.315Z,5.80
2019-03-04T19:16:01.837Z,5.70
2019-03-04T19:18:29.919Z,5.80
2019-03-04T19:20:57.955Z,5.90
2019-03-04T19:23:25.496Z,5.90
2019-03-04T19:25:53.380Z,5.80
2019-03-04T19:28:20.962Z,5.70
2019-03-04T19:30:48.962Z,5.70
2019-03-04T19:33:16.534Z,5.80
2019-03-04T19:35:44.375Z,5.70
2019-03-04T19:38:13.255Z,5.70
2019-03-04T19:40:40.860Z,5.70
2019-03-04T19:43:08.504Z,5.70
2019-03-04T19:45:37.815Z,5.60
2019-03-04T19:48:06.165Z,5.60
2019-03-04T19:50:33.709Z,5.60
2019-03-04T19:53:01.312Z,5.50
2019-03-04T19:55:28.895Z,5.60
2019-03-04T19:57:56.447Z,5.50
2019-03-04T20:00:25.204Z,5.50
2019-03-04T20:02:53.279Z,5.50
2019-03-04T20:05:22.548Z,5.50
2019-03-04T20:07:50.177Z,5.50
2019-03-04T20:10:18.278Z,5.50
2019-03-04T20:12:45.895Z,5.50
2019-03-04T20:15:18.758Z,5.50
2019-03-04T20:17:46.747Z,5.50
2019-03-04T20:20:14.270Z,5.60
2019-03-04T20:22:42.002Z,5.50
2019-03-04T20:25:09.782Z,5.40
2019-03-04T20:27:37.276Z,5.40
2019-03-04T20:30:05.839Z,5.40
2019-03-04T20:32:33.379Z,5.50
2019-03-04T20:35:00.991Z,5.40
2019-03-04T20:37:29.962Z,5.50
2019-03-04T20:39:57.815Z,5.50
2019-03-04T20:42:25.359Z,5.50
2019-03-04T20:44:53.002Z,5.40
2019-03-04T20:47:20.598Z,5.30
2019-03-04T20:49:48.147Z,5.40
2019-03-04T20:52:15.721Z,5.30
2019-03-04T20:54:43.315Z,5.30
2019-03-04T20:57:10.830Z,5.20
2019-03-04T20:59:38.376Z,5.20
2019-03-04T21:02:06.002Z,5.20
2019-03-04T21:04:33.562Z,5.20
2019-03-04T21:07:01.086Z,5.10
2019-03-04T21:09:29.075Z,5.10
2019-03-04T21:11:56.614Z,5.00
2019-03-04T21:14:24.174Z,5.10
2019-03-04T21:16:52.146Z,5.10
2019-03-04T21:19:19.622Z,5.00
2019-03-04T21:21:47.667Z,4.90
2019-03-04T21:24:15.428Z,5.00
2019-03-04T21:26:45.696Z,5.00
2019-03-04T21:29:47.569Z,5.00
2019-03-04T21:32:20.224Z,4.90
2019-03-04T21:35:44.920Z,5.10
2019-03-04T21:38:13.059Z,5.00
2019-03-04T21:41:00.462Z,5.00
2019-03-04T21:43:36.165Z,5.00
2019-03-04T21:46:43.132Z,5.10
2019-03-04T21:49:12.466Z,5.00
2019-03-04T21:52:20.245Z,5.00
2019-03-04T21:54:45.982Z,5.10
2019-03-04T21:57:44.326Z,5.20
2019-03-04T22:00:16.567Z,5.20
2019-03-04T22:02:56.535Z,5.10
2019-03-04T22:05:24.335Z,5.20
2019-03-04T22:07:52.151Z,5.10
2019-03-04T22:10:19.712Z,5.20
2019-03-04T22:12:47.737Z,5.20
2019-03-04T22:15:16.626Z,5.20
2019-03-04T22:17:44.234Z,5.20
2019-03-04T22:20:12.063Z,5.10
2019-03-04T22:22:39.918Z,5.20
2019-03-04T22:25:08.253Z,5.20
2019-03-04T22:27:35.807Z,5.20
2019-03-04T22:30:05.412Z,5.20
2019-03-04T22:32:33.554Z,5.10
2019-03-04T22:35:04.061Z,5.20
2019-03-04T22:37:51.092Z,5.30
2019-03-04T22:40:19.350Z,5.30
2019-03-04T22:42:47.011Z,5.40
2019-03-04T22:45:16.040Z,5.50
2019-03-04T22:47:44.000Z,5.50
2019-03-04T22:50:12.204Z,5.60
2019-03-04T22:52:40.561Z,5.60
2019-03-04T22:55:11.141Z,5.70
2019-03-04T22:57:38.683Z,5.80
2019-03-04T23:00:49.948Z,5.80
2019-03-04T23:03:17.536Z,5.90
2019-03-04T23:05:45.562Z,6.10
2019-03-04T23:08:13.204Z,6.10
2019-03-04T23:10:43.438Z,5.90
2019-03-04T23:13:47.562Z,5.70
2019-03-04T23:16:17.587Z,5.60
2019-03-04T23:18:45.145Z,5.50
2019-03-04T23:21:12.720Z,5.40
2019-03-04T23:23:40.285Z,5.50
2019-03-04T23:26:07.814Z,5.40
2019-03-04T23:28:35.341Z,5.40
2019-03-04T23:31:02.892Z,5.30
2019-03-04T23:33:30.421Z,5.20
2019-03-04T23:35:57.990Z,5.20
2019-03-04T23:38:25.530Z,5.20
2019-03-04T23:40:53.134Z,5.20
2019-03-04T23:43:20.820Z,5.20
2019-03-04T23:45:48.416Z,5.20
2019-03-04T23:48:15.942Z,5.20
2019-03-04T23:50:43.755Z,5.30
2019-03-04T23:53:11.275Z,5.30
2019-03-04T23:55:38.871Z,5.20
2019-03-04T23:58:06.619Z,5.20
